createdAt,value
2019-04-29T00:00:56.550Z,3.77
2019-04-29T00:03:28.516Z,4.87
2019-04-29T00:06:00.517Z,4.23
2019-04-29T00:08:32.507Z,4.30
2019-04-29T00:11:04.572Z,4.43
2019-04-29T00:13:36.542Z,5.50
2019-04-29T00:16:21.624Z,4.00
2019-04-29T00:19:13.304Z,4.10
2019-04-29T00:21:45.266Z,4.43
2019-04-29T00:24:17.260Z,4.00
2019-04-29T00:26:49.239Z,4.53
2019-04-29T00:29:21.234Z,4.43
2019-04-29T00:31:53.170Z,4.10
2019-04-29T00:34:25.171Z,4.20
2019-04-29T00:37:04.779Z,4.27
2019-04-29T00:40:06.987Z,3.83
2019-04-29T00:42:51.442Z,3.93
2019-04-29T00:45:23.914Z,4.30
2019-04-29T00:47:55.878Z,4.20
2019-04-29T00:50:27.862Z,4.50
2019-04-29T00:52:59.831Z,4.23
2019-04-29T00:55:32.732Z,4.47
2019-04-29T00:58:04.703Z,3.93
2019-04-29T01:00:39.383Z,4.23
2019-04-29T01:03:11.371Z,3.77
2019-04-29T01:05:43.339Z,3.77
2019-04-29T01:08:15.282Z,4.00
2019-04-29T01:10:47.261Z,4.60
2019-04-29T01:13:19.215Z,3.50
2019-04-29T01:15:51.206Z,3.83
2019-04-29T01:18:23.148Z,4.00
2019-04-29T01:20:55.115Z,3.77
2019-04-29T01:23:27.073Z,3.93
2019-04-29T01:26:03.077Z,3.83
2019-04-29T01:28:44.740Z,4.43
2019-04-29T01:31:29.463Z,3.37
2019-04-29T01:34:13.563Z,3.83
2019-04-29T01:36:45.990Z,4.17
2019-04-29T01:39:19.214Z,4.03
2019-04-29T01:42:03.287Z,3.43
2019-04-29T01:44:36.585Z,4.30
2019-04-29T01:47:08.555Z,4.10
2019-04-29T01:49:40.525Z,4.17
2019-04-29T01:52:12.509Z,3.90
2019-04-29T01:54:44.474Z,4.17
2019-04-29T01:57:16.443Z,4.43
2019-04-29T01:59:48.394Z,3.73
2019-04-29T02:02:20.384Z,4.23
2019-04-29T02:04:52.313Z,3.77
2019-04-29T02:07:24.290Z,3.90
2019-04-29T02:10:05.081Z,3.90
2019-04-29T02:12:37.087Z,3.77
2019-04-29T02:15:09.029Z,3.83
2019-04-29T02:17:40.991Z,3.90
2019-04-29T02:20:13.073Z,4.03
2019-04-29T02:22:50.443Z,4.47
2019-04-29T02:25:27.834Z,4.30
2019-04-29T02:27:59.799Z,4.20
2019-04-29T02:30:39.757Z,4.80
2019-04-29T02:33:11.710Z,4.53
2019-04-29T02:35:43.719Z,4.50
2019-04-29T02:38:24.556Z,4.83
2019-04-29T02:41:05.092Z,4.97
2019-04-29T02:43:38.650Z,4.77
2019-04-29T02:46:10.575Z,4.43
2019-04-29T02:48:42.549Z,4.50
2019-04-29T02:51:34.098Z,4.07
2019-04-29T02:54:06.084Z,3.97
2019-04-29T02:56:39.030Z,3.93
2019-04-29T02:59:12.019Z,4.43
2019-04-29T03:01:51.711Z,4.33
2019-04-29T03:04:25.892Z,4.07
2019-04-29T03:06:57.817Z,4.20
2019-04-29T03:09:31.705Z,3.37
2019-04-29T03:12:03.700Z,4.57
2019-04-29T03:14:35.621Z,3.70
2019-04-29T03:17:08.572Z,4.10
2019-04-29T03:20:00.398Z,3.73
2019-04-29T03:22:32.473Z,4.17
2019-04-29T03:25:04.573Z,3.97
2019-04-29T03:27:36.558Z,4.10
2019-04-29T03:30:08.985Z,4.23
2019-04-29T03:32:40.991Z,3.80
2019-04-29T03:35:13.073Z,4.43
2019-04-29T03:37:45.002Z,4.70
2019-04-29T03:40:17.011Z,4.53
2019-04-29T03:42:48.980Z,3.80
2019-04-29T03:45:21.025Z,4.07
2019-04-29T03:47:52.985Z,4.73
2019-04-29T03:50:24.991Z,4.60
2019-04-29T03:52:56.890Z,4.87
2019-04-29T03:55:38.863Z,4.40
2019-04-29T03:58:02.749Z,4.97
2019-04-29T04:00:34.711Z,5.07
2019-04-29T04:03:20.160Z,5.60
2019-04-29T04:06:06.922Z,5.23
2019-04-29T04:08:42.173Z,5.27
2019-04-29T04:11:14.155Z,4.90
2019-04-29T04:13:46.075Z,4.73
2019-04-29T04:16:27.139Z,4.77
2019-04-29T04:19:06.687Z,3.73
2019-04-29T04:21:38.651Z,4.87
2019-04-29T04:24:10.616Z,4.90
2019-04-29T04:26:42.605Z,5.07
2019-04-29T04:29:14.575Z,4.60
2019-04-29T04:31:46.591Z,4.70
2019-04-29T04:34:18.542Z,4.70
2019-04-29T04:36:50.532Z,4.83
2019-04-29T04:39:22.507Z,5.07
2019-04-29T04:41:54.582Z,5.47
2019-04-29T04:44:46.132Z,4.60
2019-04-29T04:47:19.120Z,4.83
2019-04-29T04:49:51.034Z,4.80
2019-04-29T04:52:23.077Z,5.33
2019-04-29T04:54:55.351Z,5.63
2019-04-29T04:57:27.486Z,5.53
2019-04-29T04:59:59.450Z,5.03
2019-04-29T05:02:31.549Z,5.40
2019-04-29T05:05:03.671Z,5.57
2019-04-29T05:07:35.683Z,6.27
2019-04-29T05:10:07.637Z,5.87
2019-04-29T05:12:39.671Z,5.23
2019-04-29T05:15:11.856Z,5.87
2019-04-29T05:17:44.037Z,6.60
2019-04-29T05:20:15.971Z,7.37
2019-04-29T05:23:00.027Z,7.87
2019-04-29T05:25:32.828Z,6.10
2019-04-29T05:28:04.977Z,7.53
2019-04-29T05:30:36.936Z,6.43
2019-04-29T05:33:08.901Z,8.27
2019-04-29T05:36:09.511Z,6.47
2019-04-29T05:38:51.479Z,6.20
2019-04-29T05:41:24.997Z,26.07
2019-04-29T05:44:19.055Z,7.60
2019-04-29T05:46:56.669Z,6.87
2019-04-29T05:49:42.916Z,6.37
2019-04-29T05:52:39.543Z,6.13
2019-04-29T05:55:13.772Z,7.07
2019-04-29T05:57:45.302Z,6.50
2019-04-29T06:00:22.878Z,6.80
2019-04-29T06:02:52.429Z,7.40
2019-04-29T06:05:24.384Z,6.90
2019-04-29T06:08:01.195Z,6.47
2019-04-29T06:10:31.066Z,6.93
2019-04-29T06:13:03.042Z,6.80
2019-04-29T06:15:35.055Z,7.37
2019-04-29T06:18:07.036Z,7.40
2019-04-29T06:20:38.996Z,11.13
2019-04-29T06:23:10.974Z,8.93
2019-04-29T06:25:42.934Z,10.03
2019-04-29T06:28:14.997Z,11.97
2019-04-29T06:30:50.089Z,9.50
2019-04-29T06:33:24.309Z,12.10
2019-04-29T06:35:57.058Z,13.40
2019-04-29T06:38:28.660Z,12.57
2019-04-29T06:41:00.656Z,11.17
2019-04-29T06:43:32.656Z,11.57
2019-04-29T06:46:04.588Z,13.00
2019-04-29T06:48:36.720Z,11.77
2019-04-29T06:51:08.862Z,11.27
2019-04-29T06:53:40.947Z,11.50
2019-04-29T06:56:13.020Z,13.50
2019-04-29T06:58:45.078Z,13.97
2019-04-29T07:01:17.146Z,13.33
2019-04-29T07:03:49.185Z,14.97
2019-04-29T07:06:21.204Z,13.23
2019-04-29T07:08:53.154Z,14.20
2019-04-29T07:11:25.133Z,11.40
2019-04-29T07:13:57.685Z,11.83
2019-04-29T07:16:32.088Z,12.17
2019-04-29T07:19:04.111Z,12.27
2019-04-29T07:21:36.089Z,13.50
2019-04-29T07:24:08.047Z,13.63
2019-04-29T07:26:40.040Z,14.63
2019-04-29T07:29:12.019Z,13.77
2019-04-29T07:31:43.998Z,14.27
2019-04-29T07:34:15.963Z,15.20
2019-04-29T07:36:47.964Z,14.07
2019-04-29T07:39:19.952Z,12.70
2019-04-29T07:41:53.714Z,14.37
2019-04-29T07:44:42.779Z,12.80
2019-04-29T07:47:02.528Z,13.80
2019-04-29T07:49:34.598Z,14.37
2019-04-29T07:52:09.797Z,12.37
2019-04-29T07:54:40.475Z,14.50
2019-04-29T07:57:16.400Z,13.13
2019-04-29T07:59:46.342Z,14.73
2019-04-29T08:02:18.360Z,16.40
2019-04-29T08:04:50.323Z,13.77
2019-04-29T08:07:23.020Z,13.67
2019-04-29T08:09:55.071Z,12.57
2019-04-29T08:12:27.568Z,12.47
2019-04-29T08:15:07.623Z,14.87
2019-04-29T08:17:33.919Z,12.00
2019-04-29T08:20:06.481Z,13.43
2019-04-29T08:22:38.520Z,13.17
2019-04-29T08:25:10.486Z,12.60
2019-04-29T08:27:43.856Z,13.07
2019-04-29T08:30:18.260Z,14.20
2019-04-29T08:32:49.956Z,14.00
2019-04-29T08:35:21.894Z,13.50
2019-04-29T08:37:53.889Z,14.23
2019-04-29T08:40:25.855Z,12.57
2019-04-29T08:43:20.595Z,13.53
2019-04-29T08:45:58.718Z,13.73
2019-04-29T08:48:30.719Z,13.40
2019-04-29T08:51:02.688Z,13.40
2019-04-29T08:53:34.737Z,12.90
2019-04-29T08:56:10.164Z,14.50
2019-04-29T08:58:44.217Z,12.77
2019-04-29T09:01:14.473Z,12.27
2019-04-29T09:03:46.433Z,13.10
2019-04-29T09:06:18.357Z,12.30
2019-04-29T09:08:55.402Z,14.37
2019-04-29T09:11:24.218Z,11.50
2019-04-29T09:13:56.207Z,12.23
2019-04-29T09:16:28.183Z,12.63
2019-04-29T09:19:00.172Z,12.27
2019-04-29T09:21:32.135Z,13.07
2019-04-29T09:24:04.181Z,12.47
2019-04-29T09:26:44.205Z,11.83
2019-04-29T09:29:35.228Z,12.00
2019-04-29T09:32:07.192Z,12.40
2019-04-29T09:34:39.167Z,12.07
2019-04-29T09:37:11.125Z,14.47
2019-04-29T09:39:45.001Z,11.93
2019-04-29T09:42:37.815Z,12.30
2019-04-29T09:45:24.548Z,10.97
2019-04-29T09:47:56.634Z,13.03
2019-04-29T09:50:28.700Z,13.10
2019-04-29T09:53:00.746Z,11.70
2019-04-29T09:55:35.698Z,12.73
2019-04-29T09:58:06.640Z,11.80
2019-04-29T10:01:01.219Z,12.17
2019-04-29T10:03:51.418Z,12.47
2019-04-29T10:06:26.924Z,11.43
2019-04-29T10:08:58.890Z,12.13
2019-04-29T10:11:30.835Z,12.37
2019-04-29T10:14:02.805Z,12.60
2019-04-29T10:16:54.377Z,10.40
2019-04-29T10:19:32.125Z,10.80
2019-04-29T10:22:04.135Z,11.57
2019-04-29T10:24:36.100Z,10.67
2019-04-29T10:27:08.115Z,11.30
2019-04-29T10:29:41.980Z,10.70
2019-04-29T10:32:14.030Z,10.93
2019-04-29T10:34:46.047Z,11.77
2019-04-29T10:37:18.019Z,9.70
2019-04-29T10:40:21.710Z,10.30
2019-04-29T10:43:17.185Z,9.83
2019-04-29T10:46:21.205Z,10.37
2019-04-29T10:48:58.988Z,10.07
2019-04-29T10:51:31.879Z,9.70
2019-04-29T10:54:04.083Z,9.27
2019-04-29T10:56:39.499Z,9.73
2019-04-29T10:59:11.172Z,9.10
2019-04-29T11:02:33.505Z,8.87
2019-04-29T11:05:36.282Z,8.07
2019-04-29T11:08:18.581Z,8.53
2019-04-29T11:10:50.775Z,8.97
2019-04-29T11:13:22.748Z,8.40
2019-04-29T11:15:54.745Z,7.27
2019-04-29T11:18:26.736Z,7.57
2019-04-29T11:20:58.756Z,9.03
2019-04-29T11:23:46.007Z,7.90
2019-04-29T11:26:36.239Z,7.37
2019-04-29T11:29:09.502Z,7.03
2019-04-29T11:31:41.816Z,7.75
2019-04-29T11:34:42.717Z,7.97
2019-04-29T11:37:17.895Z,8.20
2019-04-29T11:39:51.685Z,9.17
2019-04-29T11:42:23.929Z,6.78
2019-04-29T11:44:57.065Z,7.05
2019-04-29T11:47:30.193Z,6.65
2019-04-29T11:50:26.911Z,9.17
2019-04-29T11:52:58.551Z,5.72
2019-04-29T11:55:30.545Z,5.50
2019-04-29T11:58:08.382Z,6.53
2019-04-29T12:01:17.994Z,6.67
2019-04-29T12:03:51.372Z,4.65
2019-04-29T12:06:24.754Z,5.75
2019-04-29T12:08:56.893Z,7.17
2019-04-29T12:11:35.878Z,6.60
2019-04-29T12:14:18.608Z,5.97
2019-04-29T12:16:59.171Z,6.42
2019-04-29T12:19:32.918Z,5.43
2019-04-29T12:22:08.934Z,4.40
2019-04-29T12:24:39.022Z,5.45
2019-04-29T12:27:14.812Z,4.45
2019-04-29T12:29:48.816Z,7.17
2019-04-29T12:32:27.105Z,4.28
2019-04-29T12:35:11.541Z,4.30
2019-04-29T12:38:18.517Z,5.33
2019-04-29T12:41:20.658Z,4.58
2019-04-29T12:44:00.129Z,4.22
2019-04-29T12:47:00.851Z,4.80
2019-04-29T12:49:32.852Z,4.22
2019-04-29T12:52:04.821Z,3.42
2019-04-29T12:54:36.809Z,3.27
2019-04-29T12:57:09.071Z,3.87
2019-04-29T12:59:42.531Z,7.58
2019-04-29T13:02:40.388Z,3.60
2019-04-29T13:05:41.828Z,5.60
2019-04-29T13:08:27.111Z,4.80
2019-04-29T13:11:01.532Z,6.03
2019-04-29T13:13:33.578Z,6.95
2019-04-29T13:16:23.717Z,4.80
2019-04-29T13:19:16.420Z,5.33
2019-04-29T13:21:46.458Z,5.37
2019-04-29T13:24:26.013Z,4.45
2019-04-29T13:26:52.531Z,5.37
2019-04-29T13:29:27.328Z,3.55
2019-04-29T13:32:01.641Z,3.45
2019-04-29T13:34:37.290Z,4.28
2019-04-29T13:37:18.304Z,3.22
2019-04-29T13:39:43.234Z,4.62
2019-04-29T13:42:15.955Z,4.50
2019-04-29T13:45:05.645Z,4.75
2019-04-29T13:47:49.959Z,5.12
2019-04-29T13:50:38.914Z,4.72
2019-04-29T13:52:57.715Z,6.00
2019-04-29T13:55:47.279Z,4.40
2019-04-29T13:58:03.724Z,4.30
2019-04-29T14:00:55.673Z,5.15
2019-04-29T14:03:42.110Z,5.30
2019-04-29T14:06:18.422Z,4.60
2019-04-29T14:08:48.354Z,5.92
2019-04-29T14:11:21.988Z,4.35
2019-04-29T14:13:54.294Z,5.77
2019-04-29T14:16:26.264Z,6.10
2019-04-29T14:18:58.312Z,6.80
2019-04-29T14:21:31.820Z,6.57
2019-04-29T14:24:04.002Z,7.47
2019-04-29T14:26:36.889Z,6.97
2019-04-29T14:29:09.967Z,7.67
2019-04-29T14:31:41.975Z,7.80
2019-04-29T14:34:20.783Z,6.80
2019-04-29T14:36:57.476Z,7.43
2019-04-29T14:39:36.734Z,6.93
2019-04-29T14:42:05.065Z,6.00
2019-04-29T14:44:50.406Z,6.93
2019-04-29T14:47:40.715Z,7.23
2019-04-29T14:50:15.599Z,7.80
2019-04-29T14:52:49.362Z,8.10
2019-04-29T14:55:25.489Z,9.47
2019-04-29T14:57:54.747Z,8.00
2019-04-29T15:00:49.296Z,9.00
2019-04-29T15:03:22.605Z,7.90
2019-04-29T15:05:54.682Z,7.70
2019-04-29T15:08:26.758Z,7.67
2019-04-29T15:10:58.860Z,8.27
2019-04-29T15:13:31.000Z,8.47
2019-04-29T15:16:13.673Z,8.73
2019-04-29T15:18:51.105Z,9.07
2019-04-29T15:21:45.073Z,9.87
2019-04-29T15:24:17.619Z,10.40
2019-04-29T15:26:49.745Z,10.47
2019-04-29T15:29:21.751Z,10.93
2019-04-29T15:31:53.697Z,8.20
2019-04-29T15:34:25.830Z,9.27
2019-04-29T15:36:57.794Z,9.37
2019-04-29T15:39:29.841Z,8.77
2019-04-29T15:42:06.189Z,9.77
2019-04-29T15:44:35.923Z,9.50
2019-04-29T15:47:07.840Z,8.63
2019-04-29T15:49:39.902Z,7.77
2019-04-29T15:52:11.888Z,8.57
2019-04-29T15:54:45.941Z,9.27
2019-04-29T15:57:17.890Z,9.80
2019-04-29T15:59:58.890Z,9.20
2019-04-29T16:02:24.079Z,8.97
2019-04-29T16:05:04.571Z,8.63
2019-04-29T16:07:55.673Z,8.53
2019-04-29T16:10:59.734Z,10.73
2019-04-29T16:13:31.748Z,8.57
2019-04-29T16:16:03.785Z,10.87
2019-04-29T16:18:35.795Z,9.70
2019-04-29T16:21:07.845Z,10.17
2019-04-29T16:23:40.356Z,49.10
2019-04-29T16:26:12.461Z,13.33
2019-04-29T16:28:44.912Z,12.23
2019-04-29T16:31:17.060Z,5.87
2019-04-29T16:33:54.691Z,5.37
2019-04-29T16:36:22.971Z,6.97
2019-04-29T16:38:54.997Z,6.13
2019-04-29T16:42:01.739Z,6.97
2019-04-29T16:47:13.211Z,7.57
2019-04-29T16:49:43.220Z,7.37
2019-04-29T16:52:15.242Z,7.50
2019-04-29T16:54:47.320Z,5.93
2019-04-29T16:57:19.343Z,6.13
2019-04-29T16:59:51.349Z,6.20
2019-04-29T17:02:23.968Z,6.87
2019-04-29T17:04:56.000Z,6.37
2019-04-29T17:07:28.111Z,6.70
2019-04-29T17:10:14.839Z,6.23
2019-04-29T17:12:49.199Z,6.43
2019-04-29T17:15:25.563Z,5.90
2019-04-29T17:17:55.279Z,6.53
2019-04-29T17:20:27.523Z,5.83
2019-04-29T17:22:59.523Z,6.93
2019-04-29T17:25:31.652Z,8.03
2019-04-29T17:28:24.259Z,7.73
2019-04-29T17:31:12.722Z,7.17
2019-04-29T17:33:50.428Z,6.67
2019-04-29T17:35:14.348Z,8.07
2019-04-29T17:36:24.084Z,11.97
2019-04-29T17:38:56.608Z,36.70
2019-04-29T17:41:28.675Z,23.67
2019-04-29T17:44:14.478Z,11.10
2019-04-29T17:47:11.547Z,10.67
2019-04-29T17:50:06.532Z,10.57
2019-04-29T17:52:38.315Z,7.30
2019-04-29T17:55:37.668Z,7.73
2019-04-29T17:58:20.707Z,7.17
2019-04-29T18:01:25.993Z,7.43
2019-04-29T18:04:19.973Z,7.63
2019-04-29T18:07:08.113Z,7.43
2019-04-29T18:09:49.654Z,7.30
2019-04-29T18:12:22.519Z,7.50
2019-04-29T18:14:55.119Z,7.77
2019-04-29T18:17:31.498Z,11.87
2019-04-29T18:20:30.851Z,15.07
2019-04-29T18:23:21.308Z,9.93
2019-04-29T18:25:57.837Z,12.57
2019-04-29T18:28:30.107Z,13.10
2019-04-29T18:31:03.160Z,12.00
2019-04-29T18:33:35.267Z,11.97
2019-04-29T18:36:10.579Z,12.87
2019-04-29T18:38:42.398Z,22.43
2019-04-29T18:41:24.314Z,17.00
2019-04-29T18:43:49.228Z,12.97
2019-04-29T18:46:21.331Z,11.80
2019-04-29T18:48:55.934Z,11.47
2019-04-29T18:51:28.797Z,11.53
2019-04-29T18:54:01.107Z,11.60
2019-04-29T18:56:36.264Z,12.07
2019-04-29T18:59:07.280Z,11.63
2019-04-29T19:01:39.264Z,10.80
2019-04-29T19:04:26.624Z,11.93
2019-04-29T19:07:02.177Z,11.07
2019-04-29T19:09:35.753Z,11.07
2019-04-29T19:12:08.587Z,12.00
2019-04-29T19:14:40.697Z,13.87
2019-04-29T19:17:12.852Z,13.87
2019-04-29T19:19:45.282Z,12.73
2019-04-29T19:22:17.493Z,11.70
2019-04-29T19:24:49.632Z,12.53
2019-04-29T19:27:21.653Z,18.80
2019-04-29T19:29:55.067Z,18.63
2019-04-29T19:32:27.663Z,15.20
2019-04-29T19:34:59.831Z,12.80
2019-04-29T19:37:32.534Z,13.53
2019-04-29T19:40:08.202Z,14.40
2019-04-29T19:42:40.986Z,12.70
2019-04-29T19:45:15.432Z,13.53
2019-04-29T19:47:53.042Z,14.70
2019-04-29T19:50:21.322Z,28.13
2019-04-29T19:52:55.345Z,21.50
2019-04-29T19:55:27.824Z,20.37
2019-04-29T19:58:00.616Z,16.40
2019-04-29T20:00:33.618Z,15.90
2019-04-29T20:03:20.495Z,14.13
2019-04-29T20:05:46.670Z,15.40
2019-04-29T20:08:37.377Z,14.57
2019-04-29T20:10:53.453Z,15.10
2019-04-29T20:13:31.292Z,18.00
2019-04-29T20:16:22.745Z,14.50
2019-04-29T20:19:02.718Z,17.17
2019-04-29T20:21:36.452Z,14.50
2019-04-29T20:24:09.331Z,22.70
2019-04-29T20:26:44.241Z,15.53
2019-04-29T20:29:16.837Z,15.23
2019-04-29T20:31:52.847Z,14.87
2019-04-29T20:34:24.438Z,17.63
2019-04-29T20:36:56.804Z,15.40
2019-04-29T20:39:29.002Z,14.87
2019-04-29T20:42:06.454Z,17.83
2019-04-29T20:44:36.957Z,15.27
2019-04-29T20:47:19.587Z,17.57
2019-04-29T20:49:43.245Z,14.90
2019-04-29T20:52:44.381Z,14.63
2019-04-29T20:55:16.858Z,15.67
2019-04-29T20:57:52.497Z,17.17
2019-04-29T21:00:24.939Z,16.43
2019-04-29T21:02:57.173Z,16.03
2019-04-29T21:05:29.456Z,16.40
2019-04-29T21:08:03.422Z,18.07
2019-04-29T21:10:37.994Z,19.67
2019-04-29T21:13:23.666Z,18.77
2019-04-29T21:16:02.578Z,19.63
2019-04-29T21:18:35.696Z,17.33
2019-04-29T21:21:08.496Z,18.00
2019-04-29T21:23:40.510Z,18.90
2019-04-29T21:26:12.556Z,18.80
2019-04-29T21:28:45.310Z,20.57
2019-04-29T21:31:20.013Z,21.70
2019-04-29T21:33:55.403Z,21.47
2019-04-29T21:36:45.336Z,21.67
2019-04-29T21:39:36.425Z,20.80
2019-04-29T21:42:16.419Z,22.23
2019-04-29T21:44:48.399Z,21.83
2019-04-29T21:47:21.739Z,20.53
2019-04-29T21:49:56.272Z,20.90
2019-04-29T21:52:27.628Z,21.57
2019-04-29T21:54:59.618Z,20.10
2019-04-29T21:57:31.589Z,23.73
2019-04-29T22:00:05.672Z,21.47
2019-04-29T22:02:41.445Z,21.07
2019-04-29T22:05:14.816Z,20.87
2019-04-29T22:07:47.511Z,23.90
2019-04-29T22:10:23.867Z,22.70
2019-04-29T22:12:58.324Z,23.27
2019-04-29T22:15:32.824Z,24.77
2019-04-29T22:18:01.808Z,22.43
2019-04-29T22:20:41.989Z,22.63
2019-04-29T22:23:13.268Z,23.03
2019-04-29T22:25:45.776Z,24.27
2019-04-29T22:28:19.798Z,25.40
2019-04-29T22:30:54.788Z,25.10
2019-04-29T22:33:25.265Z,26.33
2019-04-29T22:35:57.408Z,25.30
2019-04-29T22:38:29.372Z,24.37
2019-04-29T22:41:04.954Z,26.80
2019-04-29T22:43:48.658Z,27.10
2019-04-29T22:46:20.681Z,28.40
2019-04-29T22:48:52.659Z,27.87
2019-04-29T22:51:25.463Z,28.07
2019-04-29T22:53:57.636Z,29.87
2019-04-29T22:56:29.617Z,27.90
2019-04-29T22:59:01.619Z,28.70
2019-04-29T23:01:35.837Z,31.43
2019-04-29T23:04:09.675Z,30.10
2019-04-29T23:06:46.626Z,29.37
2019-04-29T23:09:15.284Z,31.57
2019-04-29T23:11:47.507Z,31.90
2019-04-29T23:14:19.596Z,31.40
2019-04-29T23:16:51.585Z,29.23
2019-04-29T23:19:23.534Z,31.27
2019-04-29T23:22:16.889Z,34.83
2019-04-29T23:25:05.715Z,34.60
2019-04-29T23:27:37.721Z,34.87
2019-04-29T23:30:13.611Z,36.13
2019-04-29T23:32:47.637Z,33.23
2019-04-29T23:35:19.669Z,33.57
2019-04-29T23:37:51.741Z,38.40
2019-04-29T23:40:23.689Z,35.57
2019-04-29T23:42:57.469Z,38.30
2019-04-29T23:45:29.571Z,36.07
2019-04-29T23:48:01.537Z,36.70
2019-04-29T23:50:35.770Z,35.20
2019-04-29T23:53:07.386Z,39.33
2019-04-29T23:55:39.353Z,39.23
2019-04-29T23:58:37.250Z,37.43
